createdAt,value
2019-01-13T00:01:59.728Z,1999.90
2019-01-13T00:04:36.368Z,29.60
2019-01-13T00:07:20.158Z,177.60
2019-01-13T00:09:49.549Z,36.80
2019-01-13T00:12:19.186Z,1999.90
2019-01-13T00:14:48.584Z,1999.90
2019-01-13T00:17:19.552Z,1999.90
2019-01-13T00:19:48.988Z,1999.90
2019-01-13T00:22:31.294Z,49.27
2019-01-13T00:25:00.763Z,22.80
2019-01-13T00:27:30.303Z,26.93
2019-01-13T00:29:59.832Z,40.30
2019-01-13T00:32:30.916Z,37.03
2019-01-13T00:35:02.065Z,80.77
2019-01-13T00:37:31.567Z,39.73
2019-01-13T00:40:00.960Z,24.90
2019-01-13T00:42:30.502Z,32.97
2019-01-13T00:44:59.951Z,29.13
2019-01-13T00:47:29.419Z,41.63
2019-01-13T00:49:58.876Z,240.97
2019-01-13T00:52:29.812Z,800.53
2019-01-13T00:54:59.250Z,329.23
2019-01-13T00:57:28.819Z,31.33
2019-01-13T00:59:58.337Z,36.40
2019-01-13T01:02:27.894Z,37.50
2019-01-13T01:04:57.280Z,578.27
2019-01-13T01:07:27.000Z,1999.90
2019-01-13T01:09:56.773Z,35.23
2019-01-13T01:12:26.266Z,28.10
2019-01-13T01:14:55.954Z,33.27
2019-01-13T01:17:25.507Z,28.73
2019-01-13T01:19:55.011Z,36.27
2019-01-13T01:22:24.473Z,36.37
2019-01-13T01:24:53.935Z,25.03
2019-01-13T01:27:23.502Z,117.27
2019-01-13T01:29:53.563Z,28.67
2019-01-13T01:32:23.024Z,26.47
2019-01-13T01:34:53.471Z,29.93
2019-01-13T01:37:22.997Z,28.97
2019-01-13T01:39:52.545Z,22.90
2019-01-13T01:42:22.064Z,34.53
2019-01-13T01:44:51.591Z,76.80
2019-01-13T01:47:21.943Z,30.70
2019-01-13T01:49:51.314Z,24.20
2019-01-13T01:52:20.689Z,28.23
2019-01-13T01:54:50.082Z,32.13
2019-01-13T01:57:19.528Z,33.63
2019-01-13T01:59:50.456Z,109.10
2019-01-13T02:02:20.274Z,544.30
2019-01-13T02:04:50.324Z,951.40
2019-01-13T02:07:19.759Z,34.83
2019-01-13T02:09:49.271Z,24.03
2019-01-13T02:12:18.705Z,34.80
2019-01-13T02:14:54.666Z,32.23
2019-01-13T02:17:24.123Z,24.17
2019-01-13T02:19:53.678Z,45.13
2019-01-13T02:22:23.108Z,30.27
2019-01-13T02:24:52.946Z,28.27
2019-01-13T02:27:22.417Z,35.23
2019-01-13T02:29:51.878Z,540.10
2019-01-13T02:32:21.465Z,509.13
2019-01-13T02:34:51.061Z,1050.90
2019-01-13T02:37:20.535Z,893.30
2019-01-13T02:39:50.111Z,27.53
2019-01-13T02:42:20.056Z,29.13
2019-01-13T02:44:49.503Z,29.90
2019-01-13T02:47:18.877Z,22.33
2019-01-13T02:49:49.837Z,27.23
2019-01-13T02:52:19.391Z,22.07
2019-01-13T02:54:48.822Z,25.13
2019-01-13T02:57:18.268Z,24.53
2019-01-13T02:59:47.761Z,26.40
2019-01-13T03:02:17.259Z,341.03
2019-01-13T03:04:46.899Z,1999.90
2019-01-13T03:07:16.633Z,1999.90
2019-01-13T03:09:46.190Z,30.13
2019-01-13T03:12:15.665Z,24.13
2019-01-13T03:14:45.231Z,30.60
2019-01-13T03:17:14.822Z,32.63
2019-01-13T03:19:44.417Z,55.87
2019-01-13T03:22:13.899Z,859.97
2019-01-13T03:24:43.668Z,23.50
2019-01-13T03:27:13.063Z,31.37
2019-01-13T03:29:42.451Z,27.67
2019-01-13T03:32:12.104Z,27.23
2019-01-13T03:34:43.239Z,172.33
2019-01-13T03:37:12.648Z,540.03
2019-01-13T03:39:42.098Z,369.93
2019-01-13T03:42:11.932Z,75.80
2019-01-13T03:44:41.793Z,25.90
2019-01-13T03:47:11.340Z,25.13
2019-01-13T03:49:41.065Z,18.93
2019-01-13T03:52:10.659Z,20.47
2019-01-13T03:54:40.051Z,30.60
2019-01-13T03:57:09.454Z,1999.90
2019-01-13T03:59:38.855Z,1999.90
2019-01-13T04:02:08.360Z,1999.90
2019-01-13T04:04:37.813Z,21.47
2019-01-13T04:07:07.278Z,19.90
2019-01-13T04:09:37.311Z,21.00
2019-01-13T04:12:06.697Z,15.10
2019-01-13T04:14:36.332Z,19.90
2019-01-13T04:17:06.107Z,21.13
2019-01-13T04:19:35.563Z,19.27
2019-01-13T04:22:05.539Z,17.30
2019-01-13T04:24:34.923Z,20.93
2019-01-13T04:27:04.538Z,12.97
2019-01-13T04:29:33.939Z,15.03
2019-01-13T04:32:03.534Z,16.60
2019-01-13T04:34:32.890Z,15.47
2019-01-13T04:37:02.370Z,14.37
2019-01-13T04:39:31.808Z,16.37
2019-01-13T04:42:01.266Z,28.30
2019-01-13T04:44:30.863Z,19.73
2019-01-13T04:47:00.365Z,20.47
2019-01-13T04:49:29.805Z,17.57
2019-01-13T04:51:59.258Z,85.40
2019-01-13T04:54:29.479Z,1999.90
2019-01-13T04:56:59.039Z,15.40
2019-01-13T04:59:28.646Z,14.40
2019-01-13T05:01:58.035Z,18.23
2019-01-13T05:04:27.386Z,723.47
2019-01-13T05:06:56.867Z,1999.90
2019-01-13T05:09:26.481Z,1999.90
2019-01-13T05:11:55.943Z,8.30
2019-01-13T05:14:25.295Z,8.70
2019-01-13T05:16:54.836Z,14.70
2019-01-13T05:19:25.824Z,10.57
2019-01-13T05:21:55.194Z,8.77
2019-01-13T05:24:24.535Z,6.07
2019-01-13T05:26:53.921Z,10.97
2019-01-13T05:29:23.506Z,9.03
2019-01-13T05:31:54.429Z,10.23
2019-01-13T05:34:23.970Z,7.77
2019-01-13T05:36:53.355Z,6.30
2019-01-13T05:39:22.840Z,5.37
2019-01-13T05:41:52.287Z,5.60
2019-01-13T05:44:21.717Z,6.53
2019-01-13T05:46:51.268Z,6.77
2019-01-13T05:49:20.726Z,5.27
2019-01-13T05:51:50.867Z,5.17
2019-01-13T05:54:20.334Z,5.17
2019-01-13T05:56:49.808Z,4.00
2019-01-13T05:59:19.429Z,4.50
2019-01-13T06:01:49.257Z,3.97
2019-01-13T06:04:19.047Z,4.97
2019-01-13T06:06:48.412Z,3.30
2019-01-13T06:09:17.996Z,5.03
2019-01-13T06:11:47.593Z,2.80
2019-01-13T06:14:17.491Z,2.00
2019-01-13T06:16:46.921Z,2.97
2019-01-13T06:19:16.327Z,2.53
2019-01-13T06:21:45.705Z,1.80
2019-01-13T06:24:15.051Z,3.87
2019-01-13T06:26:44.434Z,2.60
2019-01-13T06:29:15.322Z,4.37
2019-01-13T06:31:44.779Z,3.47
2019-01-13T06:34:14.130Z,6.53
2019-01-13T06:36:43.864Z,8.13
2019-01-13T06:39:13.348Z,6.93
2019-01-13T06:41:42.739Z,9.20
2019-01-13T06:44:12.507Z,8.70
2019-01-13T06:46:41.971Z,8.27
2019-01-13T06:49:11.702Z,8.37
2019-01-13T06:51:41.286Z,5.67
2019-01-13T06:54:10.658Z,7.13
2019-01-13T06:56:40.207Z,14.10
2019-01-13T06:59:09.636Z,11.60
2019-01-13T07:01:39.056Z,9.97
2019-01-13T07:04:08.476Z,10.70
2019-01-13T07:06:38.203Z,9.20
2019-01-13T07:09:07.707Z,14.37
2019-01-13T07:11:37.123Z,10.40
2019-01-13T07:14:06.682Z,13.37
2019-01-13T07:16:36.315Z,12.60
2019-01-13T07:19:05.764Z,15.37
2019-01-13T07:21:35.530Z,20.10
2019-01-13T07:24:04.968Z,12.07
2019-01-13T07:26:36.021Z,20.93
2019-01-13T07:29:05.540Z,171.90
2019-01-13T07:31:35.075Z,141.63
2019-01-13T07:34:04.682Z,233.30
2019-01-13T07:36:34.159Z,260.43
2019-01-13T07:39:08.177Z,143.37
2019-01-13T07:41:37.762Z,417.70
2019-01-13T07:44:07.136Z,293.33
2019-01-13T07:46:36.615Z,172.33
2019-01-13T07:49:06.184Z,33.57
2019-01-13T07:51:35.589Z,27.80
2019-01-13T07:54:05.165Z,117.93
2019-01-13T07:56:34.553Z,163.77
2019-01-13T07:59:04.073Z,1999.90
2019-01-13T08:01:35.047Z,1999.90
2019-01-13T08:04:04.848Z,29.23
2019-01-13T08:06:34.283Z,35.53
2019-01-13T08:09:05.696Z,35.73
2019-01-13T08:11:35.168Z,39.40
2019-01-13T08:14:04.973Z,36.20
2019-01-13T08:16:34.393Z,32.43
2019-01-13T08:19:03.904Z,32.13
2019-01-13T08:21:33.290Z,36.13
2019-01-13T08:24:02.715Z,31.60
2019-01-13T08:26:32.530Z,27.13
2019-01-13T08:29:01.948Z,29.03
2019-01-13T08:31:31.395Z,102.13
2019-01-13T08:34:00.868Z,26.03
2019-01-13T08:36:30.414Z,28.20
2019-01-13T08:39:00.039Z,44.10
2019-01-13T08:41:29.434Z,58.67
2019-01-13T08:43:59.476Z,53.60
2019-01-13T08:46:28.871Z,40.97
2019-01-13T08:48:58.327Z,30.53
2019-01-13T08:51:27.791Z,43.23
2019-01-13T08:53:57.166Z,47.00
2019-01-13T08:56:26.621Z,56.97
2019-01-13T08:58:56.042Z,65.37
2019-01-13T09:01:25.471Z,67.10
2019-01-13T09:03:56.147Z,44.27
2019-01-13T09:06:25.746Z,54.00
2019-01-13T09:08:55.343Z,65.90
2019-01-13T09:11:24.916Z,55.47
2019-01-13T09:13:54.373Z,89.93
2019-01-13T09:16:23.875Z,37.37
2019-01-13T09:18:53.495Z,52.33
2019-01-13T09:21:22.880Z,52.60
2019-01-13T09:23:52.442Z,53.93
2019-01-13T09:26:22.112Z,61.00
2019-01-13T09:28:51.519Z,57.93
2019-01-13T09:31:21.199Z,60.83
2019-01-13T09:33:50.823Z,72.87
2019-01-13T09:36:20.184Z,112.53
2019-01-13T09:38:49.846Z,89.03
2019-01-13T09:41:19.421Z,73.07
2019-01-13T09:43:49.159Z,54.63
2019-01-13T09:46:18.562Z,50.37
2019-01-13T09:48:48.094Z,56.80
2019-01-13T09:51:32.415Z,156.17
2019-01-13T09:54:01.909Z,50.33
2019-01-13T09:56:31.435Z,45.90
2019-01-13T09:59:00.808Z,86.90
2019-01-13T10:01:30.363Z,59.30
2019-01-13T10:03:59.735Z,1999.90
2019-01-13T10:06:29.139Z,48.23
2019-01-13T10:08:58.563Z,43.30
2019-01-13T10:11:29.565Z,43.10
2019-01-13T10:13:58.982Z,40.90
2019-01-13T10:16:28.469Z,49.70
2019-01-13T10:19:17.185Z,53.90
2019-01-13T10:21:46.653Z,50.73
2019-01-13T10:24:16.036Z,68.60
2019-01-13T10:26:45.438Z,1999.90
2019-01-13T10:29:14.822Z,1999.90
2019-01-13T10:31:45.813Z,1999.90
2019-01-13T10:34:15.270Z,109.57
2019-01-13T10:36:46.445Z,1999.90
2019-01-13T10:39:15.850Z,1999.90
2019-01-13T10:41:45.247Z,1999.90
2019-01-13T10:44:14.629Z,1999.90
2019-01-13T10:46:44.493Z,1999.90
2019-01-13T10:49:13.931Z,1999.90
2019-01-13T10:51:44.926Z,1999.90
2019-01-13T10:54:14.419Z,40.97
2019-01-13T10:56:43.881Z,1999.90
2019-01-13T10:59:13.330Z,1999.90
2019-01-13T11:01:42.885Z,1999.90
2019-01-13T11:04:12.441Z,1999.90
2019-01-13T11:06:41.926Z,1999.90
2019-01-13T11:09:12.903Z,49.27
2019-01-13T11:11:44.146Z,1999.90
2019-01-13T11:14:13.525Z,1999.90
2019-01-13T11:16:43.020Z,1999.90
2019-01-13T11:19:12.402Z,1999.90
2019-01-13T11:21:41.942Z,1999.90
2019-01-13T11:24:11.334Z,1999.90
2019-01-13T11:26:40.970Z,41.10
2019-01-13T11:29:10.538Z,1999.90
2019-01-13T11:31:40.021Z,1999.90
2019-01-13T11:34:10.884Z,1999.90
2019-01-13T11:36:40.512Z,1999.90
2019-01-13T11:39:10.452Z,36.90
2019-01-13T11:41:41.670Z,1999.90
2019-01-13T11:44:11.219Z,1999.90
2019-01-13T11:46:40.947Z,1999.90
2019-01-13T11:49:10.443Z,1999.90
2019-01-13T11:51:39.919Z,1999.90
2019-01-13T11:54:09.486Z,1999.90
2019-01-13T11:56:38.958Z,1999.90
2019-01-13T11:59:08.359Z,1999.90
2019-01-13T12:01:37.845Z,1999.90
2019-01-13T12:04:07.531Z,32.37
2019-01-13T12:06:37.071Z,1999.90
2019-01-13T12:09:07.720Z,1999.90
2019-01-13T12:11:37.287Z,1999.90
2019-01-13T12:14:07.072Z,41.43
2019-01-13T12:16:37.739Z,1999.90
2019-01-13T12:19:07.459Z,1999.90
2019-01-13T12:21:37.074Z,1999.90
2019-01-13T12:24:06.484Z,1999.90
2019-01-13T12:26:36.553Z,1999.90
2019-01-13T12:29:06.070Z,1999.90
2019-01-13T12:31:35.488Z,1999.90
2019-01-13T12:34:04.925Z,1999.90
2019-01-13T12:36:34.349Z,1999.90
2019-01-13T12:39:07.054Z,1999.90
2019-01-13T12:41:36.524Z,8.93
2019-01-13T12:44:06.119Z,1999.90
2019-01-13T12:46:36.017Z,1999.90
2019-01-13T12:49:05.532Z,1999.90
2019-01-13T12:51:35.063Z,1999.90
2019-01-13T12:54:05.257Z,1999.90
2019-01-13T12:56:34.919Z,1999.90
2019-01-13T12:59:04.599Z,1999.90
2019-01-13T13:01:34.043Z,1999.90
2019-01-13T13:04:03.577Z,1999.90
2019-01-13T13:06:33.367Z,1999.90
2019-01-13T13:09:04.382Z,1999.90
2019-01-13T13:11:33.932Z,1999.90
2019-01-13T13:14:03.377Z,342.33
2019-01-13T13:16:32.893Z,1999.90
2019-01-13T13:19:02.332Z,1353.23
2019-01-13T13:21:31.811Z,98.17
2019-01-13T13:24:01.249Z,28.30
2019-01-13T13:26:31.348Z,34.00
2019-01-13T13:29:01.229Z,85.07
2019-01-13T13:31:30.868Z,96.57
2019-01-13T13:34:00.229Z,30.47
2019-01-13T13:36:29.913Z,31.97
2019-01-13T13:38:59.403Z,32.50
2019-01-13T13:41:28.943Z,28.23
2019-01-13T13:43:58.335Z,29.37
2019-01-13T13:46:27.817Z,30.57
2019-01-13T13:48:57.418Z,33.03
2019-01-13T13:51:34.381Z,29.37
2019-01-13T13:54:04.170Z,25.27
2019-01-13T13:56:33.818Z,30.33
2019-01-13T13:59:03.588Z,24.13
2019-01-13T14:01:32.977Z,29.13
2019-01-13T14:04:02.417Z,31.43
2019-01-13T14:06:31.875Z,28.97
2019-01-13T14:09:01.362Z,31.37
2019-01-13T14:11:30.798Z,34.57
2019-01-13T14:14:00.261Z,33.73
2019-01-13T14:16:29.909Z,29.63
2019-01-13T14:18:59.280Z,32.07
2019-01-13T14:21:29.603Z,33.20
2019-01-13T14:23:59.082Z,32.33
2019-01-13T14:26:28.666Z,33.67
2019-01-13T14:28:58.586Z,40.93
2019-01-13T14:31:28.048Z,29.67
2019-01-13T14:33:57.485Z,29.30
2019-01-13T14:36:27.065Z,23.57
2019-01-13T14:38:58.196Z,24.23
2019-01-13T14:41:27.717Z,20.73
2019-01-13T14:43:57.166Z,19.27
2019-01-13T14:46:26.754Z,20.70
2019-01-13T14:48:57.856Z,17.47
2019-01-13T14:51:27.376Z,22.27
2019-01-13T14:53:56.757Z,22.07
2019-01-13T14:56:26.594Z,19.43
2019-01-13T14:58:55.966Z,22.10
2019-01-13T15:01:25.558Z,18.57
2019-01-13T15:03:59.942Z,23.87
2019-01-13T15:06:26.303Z,34.60
2019-01-13T15:08:57.239Z,23.97
2019-01-13T15:11:28.171Z,27.77
2019-01-13T15:13:57.671Z,25.87
2019-01-13T15:16:27.131Z,26.90
2019-01-13T15:18:56.588Z,26.57
2019-01-13T15:21:27.586Z,26.10
2019-01-13T15:23:57.006Z,21.97
2019-01-13T15:26:26.530Z,18.67
2019-01-13T15:28:56.485Z,27.83
2019-01-13T15:31:25.977Z,22.10
2019-01-13T15:33:55.448Z,27.13
2019-01-13T15:36:25.058Z,20.87
2019-01-13T15:38:56.273Z,30.43
2019-01-13T15:41:25.819Z,30.03
2019-01-13T15:43:57.068Z,39.60
2019-01-13T15:46:26.558Z,26.67
2019-01-13T15:48:56.027Z,25.63
2019-01-13T15:51:28.572Z,26.73
2019-01-13T15:53:58.015Z,24.73
2019-01-13T15:56:27.563Z,29.43
2019-01-13T15:58:56.986Z,27.90
2019-01-13T16:01:28.223Z,30.30
2019-01-13T16:03:57.743Z,27.67
2019-01-13T16:06:27.183Z,25.43
2019-01-13T16:08:56.617Z,37.07
2019-01-13T16:11:26.144Z,33.27
2019-01-13T16:13:55.684Z,33.73
2019-01-13T16:16:25.345Z,31.20
2019-01-13T16:18:54.841Z,36.60
2019-01-13T16:21:24.364Z,35.03
2019-01-13T16:23:55.532Z,34.60
2019-01-13T16:26:25.056Z,38.23
2019-01-13T16:28:54.428Z,38.07
2019-01-13T16:31:24.062Z,37.53
2019-01-13T16:33:53.596Z,34.63
2019-01-13T16:36:23.119Z,38.53
2019-01-13T16:38:53.273Z,27.23
2019-01-13T16:41:22.665Z,26.03
2019-01-13T16:43:52.126Z,29.43
2019-01-13T16:46:21.559Z,26.63
2019-01-13T16:48:51.007Z,31.07
2019-01-13T16:51:20.766Z,27.67
2019-01-13T16:53:50.191Z,26.40
2019-01-13T16:56:19.648Z,33.20
2019-01-13T16:58:51.524Z,31.07
2019-01-13T17:01:22.523Z,30.87
2019-01-13T17:04:06.835Z,27.47
2019-01-13T17:06:37.877Z,37.23
2019-01-13T17:09:10.692Z,41.63
2019-01-13T17:11:40.145Z,29.60
2019-01-13T17:14:09.600Z,38.17
2019-01-13T17:16:39.120Z,35.87
2019-01-13T17:19:08.512Z,30.07
2019-01-13T17:21:37.987Z,32.80
2019-01-13T17:24:07.451Z,32.27
2019-01-13T17:26:36.809Z,23.03
2019-01-13T17:29:06.306Z,22.47
2019-01-13T17:31:36.159Z,32.10
2019-01-13T17:34:05.961Z,26.00
2019-01-13T17:36:35.556Z,22.33
2019-01-13T17:39:07.323Z,19.93
2019-01-13T17:41:36.985Z,23.87
2019-01-13T17:44:06.445Z,28.73
2019-01-13T17:46:35.815Z,26.83
2019-01-13T17:49:05.342Z,18.43
2019-01-13T17:51:34.784Z,33.80
2019-01-13T17:54:04.762Z,40.03
2019-01-13T17:56:34.290Z,29.63
2019-01-13T17:59:03.929Z,28.07
2019-01-13T18:01:33.350Z,27.07
2019-01-13T18:04:02.721Z,34.73
2019-01-13T18:06:32.100Z,30.27
2019-01-13T18:09:01.486Z,44.30
2019-01-13T18:11:31.863Z,25.67
2019-01-13T18:14:01.396Z,25.53
2019-01-13T18:16:30.848Z,97.50
2019-01-13T18:19:00.572Z,18.73
2019-01-13T18:21:30.108Z,31.53
2019-01-13T18:23:59.913Z,29.17
2019-01-13T18:26:29.523Z,29.07
2019-01-13T18:28:58.990Z,24.73
2019-01-13T18:31:29.781Z,41.53
2019-01-13T18:33:59.320Z,25.50
2019-01-13T18:36:29.185Z,22.40
2019-01-13T18:38:58.578Z,31.47
2019-01-13T18:41:28.026Z,26.83
2019-01-13T18:43:57.530Z,27.90
2019-01-13T18:46:27.025Z,28.23
2019-01-13T18:48:58.015Z,32.03
2019-01-13T18:51:27.495Z,30.10
2019-01-13T18:53:57.203Z,26.03
2019-01-13T18:56:27.000Z,28.97
2019-01-13T18:58:56.557Z,33.87
2019-01-13T19:01:26.302Z,31.13
2019-01-13T19:03:55.833Z,28.67
2019-01-13T19:06:25.255Z,27.40
2019-01-13T19:08:54.728Z,32.90
2019-01-13T19:11:24.262Z,30.30
2019-01-13T19:14:02.809Z,34.90
2019-01-13T19:16:35.769Z,29.37
2019-01-13T19:19:05.368Z,26.53
2019-01-13T19:21:36.391Z,35.47
2019-01-13T19:24:05.938Z,27.00
2019-01-13T19:26:35.798Z,27.43
2019-01-13T19:29:05.296Z,29.30
2019-01-13T19:31:34.836Z,21.67
2019-01-13T19:34:04.268Z,23.57
2019-01-13T19:36:33.684Z,23.37
2019-01-13T19:39:03.914Z,33.50
2019-01-13T19:41:33.469Z,30.03
2019-01-13T19:44:03.050Z,31.53
2019-01-13T19:46:33.225Z,21.37
2019-01-13T19:49:02.827Z,27.70
2019-01-13T19:51:32.723Z,23.70
2019-01-13T19:54:02.191Z,26.90
2019-01-13T19:56:33.205Z,25.73
2019-01-13T19:59:02.656Z,28.07
2019-01-13T20:01:32.168Z,24.67
2019-01-13T20:04:01.546Z,25.73
2019-01-13T20:06:31.823Z,25.33
2019-01-13T20:09:01.214Z,24.53
2019-01-13T20:11:30.619Z,26.57
2019-01-13T20:14:00.463Z,26.50
2019-01-13T20:16:29.877Z,27.97
2019-01-13T20:18:59.261Z,28.63
2019-01-13T20:21:28.714Z,23.83
2019-01-13T20:23:58.378Z,33.57
2019-01-13T20:26:28.015Z,27.40
2019-01-13T20:28:57.778Z,31.53
2019-01-13T20:31:27.269Z,39.03
2019-01-13T20:33:56.818Z,31.87
2019-01-13T20:36:26.367Z,46.40
2019-01-13T20:38:55.852Z,29.27
2019-01-13T20:41:26.980Z,27.83
2019-01-13T20:43:56.892Z,27.37
2019-01-13T20:46:26.548Z,28.17
2019-01-13T20:48:56.055Z,38.23
2019-01-13T20:51:25.686Z,28.13
2019-01-13T20:53:55.185Z,30.70
2019-01-13T20:56:24.658Z,23.17
2019-01-13T20:58:54.368Z,25.70
2019-01-13T21:01:23.850Z,28.57
2019-01-13T21:03:53.705Z,29.43
2019-01-13T21:06:23.098Z,24.53
2019-01-13T21:08:52.823Z,24.80
2019-01-13T21:11:23.887Z,22.93
2019-01-13T21:13:53.267Z,27.83
2019-01-13T21:16:24.368Z,24.30
2019-01-13T21:18:53.867Z,16.40
2019-01-13T21:21:23.303Z,24.60
2019-01-13T21:23:52.780Z,23.27
2019-01-13T21:26:22.270Z,22.40
2019-01-13T21:28:51.807Z,16.87
2019-01-13T21:31:21.170Z,30.03
2019-01-13T21:33:50.583Z,20.70
2019-01-13T21:36:21.535Z,15.50
2019-01-13T21:38:51.035Z,20.33
2019-01-13T21:41:20.651Z,21.93
2019-01-13T21:43:50.056Z,17.30
2019-01-13T21:46:38.753Z,22.43
2019-01-13T21:49:11.263Z,17.10
2019-01-13T21:51:40.677Z,18.60
2019-01-13T21:54:10.995Z,21.17
2019-01-13T21:56:40.594Z,24.37
2019-01-13T21:59:09.977Z,23.77
2019-01-13T22:01:39.387Z,22.40
2019-01-13T22:04:08.786Z,19.57
2019-01-13T22:06:38.133Z,19.27
2019-01-13T22:09:09.911Z,19.03
2019-01-13T22:11:39.404Z,14.27
2019-01-13T22:14:08.818Z,17.30
2019-01-13T22:16:38.350Z,22.17
2019-01-13T22:19:07.804Z,29.27
2019-01-13T22:21:37.226Z,27.67
2019-01-13T22:24:06.939Z,29.67
2019-01-13T22:26:36.296Z,27.73
2019-01-13T22:29:05.753Z,26.17
2019-01-13T22:31:36.650Z,33.70
2019-01-13T22:34:06.182Z,27.47
2019-01-13T22:36:35.544Z,28.87
2019-01-13T22:39:08.265Z,24.40
2019-01-13T22:41:37.756Z,28.73
2019-01-13T22:44:07.219Z,27.80
2019-01-13T22:46:36.577Z,22.63
2019-01-13T22:49:06.104Z,24.10
2019-01-13T22:51:35.635Z,24.73
2019-01-13T22:54:05.271Z,32.80
2019-01-13T22:56:34.809Z,29.77
2019-01-13T22:59:05.834Z,33.33
2019-01-13T23:01:36.004Z,27.10
2019-01-13T23:04:05.850Z,29.50
2019-01-13T23:06:35.459Z,31.23
2019-01-13T23:09:07.563Z,26.23
2019-01-13T23:11:37.002Z,38.23
2019-01-13T23:14:06.864Z,27.20
2019-01-13T23:16:36.764Z,31.43
2019-01-13T23:19:06.363Z,31.27
2019-01-13T23:21:35.711Z,34.30
2019-01-13T23:24:06.255Z,30.07
2019-01-13T23:26:35.735Z,28.83
2019-01-13T23:29:05.647Z,25.97
2019-01-13T23:31:35.081Z,25.00
2019-01-13T23:34:04.875Z,27.03
2019-01-13T23:36:34.376Z,22.87
2019-01-13T23:39:07.231Z,28.03
2019-01-13T23:41:36.724Z,23.20
2019-01-13T23:44:06.185Z,17.47
2019-01-13T23:46:35.680Z,24.63
2019-01-13T23:49:05.318Z,26.90
2019-01-13T23:51:34.834Z,26.90
2019-01-13T23:54:04.586Z,24.70
2019-01-13T23:56:34.078Z,22.30
2019-01-13T23:59:03.758Z,23.07
